Time;durP1;ratioP1;P1;durP2;ratioP2;P2;SDS_P1;SDS_P2;PMS_P1;PMS_P2;Temp;Humidity;BMP_temperature;BMP_pressure;BME280_temperature;BME280_humidity;BME280_pressure;Samples;Min_cycle;Max_cycle;Signal;HPM_P1;HPM_P2
2024/01/17 05:30:54;;;;;;;0.10;0.10;;;3.90;95.60;;;;;;5726005;23;20133;-82
2024/01/17 05:33:20;;;;;;;0.15;0.15;;;3.90;95.60;;;;;;4989116;28;20114;-83
2024/01/17 05:35:46;;;;;;;0.10;0.10;;;3.90;95.70;;;;;;4998271;28;20027;-83
2024/01/17 05:38:11;;;;;;;0.10;0.10;;;3.90;95.60;;;;;;4986209;28;20026;-83
2024/01/17 05:40:37;;;;;;;0.20;0.20;;;3.90;95.60;;;;;;4988209;28;20041;-82
2024/01/17 05:43:03;;;;;;;0.10;0.10;;;4.00;95.70;;;;;;4997608;28;20073;-84
2024/01/17 05:45:29;;;;;;;0.10;0.10;;;4.00;95.70;;;;;;4981972;28;20023;-83
2024/01/17 05:47:55;;;;;;;0.20;0.20;;;4.00;95.60;;;;;;4983623;28;20034;-89
2024/01/17 05:50:28;;;;;;;0.10;0.10;;;4.10;95.60;;;;;;4997199;28;20034;-85
2024/01/17 05:52:54;;;;;;;0.10;0.10;;;4.10;95.70;;;;;;4997673;28;20073;-85
2024/01/17 05:55:20;;;;;;;0.10;0.10;;;4.20;95.70;;;;;;4988525;28;20027;-82
2024/01/17 05:57:45;;;;;;;0.10;0.10;;;4.20;95.70;;;;;;4993930;28;20027;-79
2024/01/17 06:00:12;;;;;;;0.10;0.10;;;4.20;95.70;;;;;;4985501;28;20210;-79
2024/01/17 06:02:40;;;;;;;0.10;0.10;;;4.20;95.60;;;;;;4972457;28;20030;-79
2024/01/17 06:05:07;;;;;;;0.10;0.10;;;4.20;95.60;;;;;;4997296;28;20036;-83
2024/01/17 06:07:33;;;;;;;0.15;0.15;;;4.20;95.60;;;;;;4992533;28;20066;-87
2024/01/17 06:09:59;;;;;;;0.10;0.10;;;4.20;95.60;;;;;;4979276;28;20055;-83
2024/01/17 06:12:25;;;;;;;0.10;0.10;;;4.20;95.60;;;;;;4990329;28;20076;-84
2024/01/17 06:14:51;;;;;;;0.10;0.10;;;4.30;95.60;;;;;;4997572;28;20486;-82
2024/01/17 06:17:19;;;;;;;0.10;0.10;;;4.30;95.60;;;;;;4993612;28;20034;-84
2024/01/17 06:19:52;;;;;;;0.10;0.10;;;4.30;95.60;;;;;;4977739;28;20425;-87
2024/01/17 06:22:20;;;;;;;0.20;0.20;;;4.30;95.60;;;;;;4988001;28;20137;-85
2024/01/17 06:24:46;;;;;;;0.10;0.10;;;4.40;95.60;;;;;;4981716;28;20031;-89
2024/01/17 06:27:14;;;;;;;0.10;0.10;;;4.50;95.60;;;;;;4983418;28;20585;-83
2024/01/17 06:29:46;;;;;;;0.10;0.10;;;4.50;95.70;;;;;;4997972;28;20029;-85
2024/01/17 06:32:12;;;;;;;0.10;0.10;;;4.50;95.80;;;;;;4996467;28;20061;-81
2024/01/17 06:34:39;;;;;;;0.10;0.10;;;4.60;95.60;;;;;;4991007;28;20023;-81
2024/01/17 06:37:05;;;;;;;0.10;0.10;;;4.60;95.60;;;;;;4988754;28;20038;-80
2024/01/17 06:39:32;;;;;;;0.20;0.20;;;4.60;95.80;;;;;;4977148;28;20023;-80
2024/01/17 06:41:58;;;;;;;0.10;0.10;;;4.70;95.80;;;;;;4979741;28;20391;-80
2024/01/17 06:44:25;;;;;;;0.10;0.10;;;4.70;95.80;;;;;;4978046;28;20386;-80
2024/01/17 06:46:51;;;;;;;0.10;0.10;;;4.80;95.70;;;;;;4989314;28;20034;-83
2024/01/17 06:49:16;;;;;;;0.10;0.10;;;4.80;95.70;;;;;;4986160;28;20031;-84
2024/01/17 06:51:42;;;;;;;0.10;0.10;;;4.90;95.70;;;;;;4996016;28;20030;-85
2024/01/17 06:54:09;;;;;;;0.13;0.13;;;4.90;95.70;;;;;;4997291;28;20019;-85
2024/01/17 06:56:36;;;;;;;0.10;0.10;;;5.10;95.80;;;;;;4993426;28;20018;-85
2024/01/17 06:59:02;;;;;;;0.17;0.17;;;5.20;95.90;;;;;;4995583;28;20029;-85
2024/01/17 07:01:27;;;;;;;0.10;0.10;;;5.30;95.90;;;;;;4995922;28;20101;-86
2024/01/17 07:03:53;;;;;;;0.10;0.10;;;5.40;96.00;;;;;;4989858;28;20101;-86
2024/01/17 07:06:19;;;;;;;0.10;0.10;;;5.50;95.90;;;;;;4988054;28;20102;-85
2024/01/17 07:08:44;;;;;;;0.10;0.10;;;5.50;95.80;;;;;;4977435;28;20027;-85
2024/01/17 07:11:13;;;;;;;0.10;0.10;;;5.50;95.70;;;;;;4993222;28;20035;-86
2024/01/17 07:13:39;;;;;;;0.10;0.10;;;5.60;95.70;;;;;;4995837;28;20113;-84
2024/01/17 07:16:05;;;;;;;0.10;0.10;;;5.70;95.70;;;;;;4991633;28;20074;-86
2024/01/17 07:18:33;;;;;;;0.10;0.10;;;5.70;95.80;;;;;;4976784;28;20019;-86
2024/01/17 07:20:59;;;;;;;0.10;0.10;;;5.70;95.80;;;;;;4976390;28;20034;-85
2024/01/17 07:23:24;;;;;;;0.10;0.10;;;5.70;95.70;;;;;;4988252;28;20034;-85
2024/01/17 07:25:50;;;;;;;0.10;0.10;;;5.70;95.70;;;;;;4977820;28;20115;-85
2024/01/17 07:28:19;;;;;;;0.10;0.10;;;5.80;95.60;;;;;;4992200;28;20038;-85
2024/01/17 07:30:44;;;;;;;0.10;0.10;;;5.70;95.70;;;;;;4976082;28;20058;-85
2024/01/17 07:33:10;;;;;;;0.10;0.10;;;5.80;95.70;;;;;;4983635;28;20109;-85
2024/01/17 07:35:36;;;;;;;0.10;0.10;;;5.80;95.70;;;;;;4996968;28;20077;-85
2024/01/17 07:38:02;;;;;;;0.10;0.10;;;5.90;95.80;;;;;;4997052;28;20081;-85
2024/01/17 07:40:28;;;;;;;0.10;0.10;;;6.00;95.80;;;;;;4997056;28;20445;-85
2024/01/17 07:42:53;;;;;;;0.10;0.10;;;6.00;95.70;;;;;;4991638;28;20061;-85
2024/01/17 07:45:21;;;;;;;0.10;0.10;;;6.10;95.70;;;;;;4976363;28;20031;-85
2024/01/17 07:47:47;;;;;;;0.10;0.10;;;6.10;95.70;;;;;;4976296;28;20035;-85
2024/01/17 07:50:12;;;;;;;0.10;0.10;;;6.10;95.60;;;;;;4975917;28;20035;-85
2024/01/17 07:52:38;;;;;;;0.10;0.10;;;6.10;95.70;;;;;;4977493;28;20062;-85
2024/01/17 07:55:04;;;;;;;0.10;0.10;;;6.20;95.70;;;;;;4987967;28;20062;-85
2024/01/17 07:57:30;;;;;;;0.10;0.10;;;6.20;95.70;;;;;;4975943;28;20030;-85
2024/01/17 07:59:56;;;;;;;0.10;0.10;;;6.20;95.70;;;;;;4980765;28;20029;-85
2024/01/17 08:02:22;;;;;;;0.10;0.10;;;6.20;95.70;;;;;;4996919;28;20027;-85
2024/01/17 08:04:49;;;;;;;0.10;0.10;;;6.20;95.60;;;;;;4997132;28;20065;-85
2024/01/17 08:07:14;;;;;;;0.10;0.10;;;6.30;95.60;;;;;;4995095;28;20532;-85
2024/01/17 08:09:41;;;;;;;0.10;0.10;;;6.30;95.60;;;;;;4993069;28;20117;-85
2024/01/17 08:12:07;;;;;;;0.10;0.10;;;6.30;95.60;;;;;;4999488;28;20099;-85
2024/01/17 08:14:34;;;;;;;0.10;0.10;;;6.30;95.70;;;;;;5000670;28;20041;-86
2024/01/17 08:17:01;;;;;;;0.10;0.10;;;6.40;95.70;;;;;;4988927;28;20097;-85
2024/01/17 08:19:27;;;;;;;0.10;0.10;;;6.50;95.80;;;;;;5000310;28;20026;-85
2024/01/17 08:21:53;;;;;;;0.10;0.10;;;6.50;95.70;;;;;;4984638;28;20098;-84
2024/01/17 08:24:19;;;;;;;0.10;0.10;;;6.40;95.60;;;;;;4987222;28;20472;-84
2024/01/17 08:26:45;;;;;;;0.10;0.10;;;6.30;95.40;;;;;;4980970;28;20035;-85
2024/01/17 08:29:11;;;;;;;0.10;0.10;;;6.40;95.50;;;;;;4979575;28;20027;-85
2024/01/17 08:31:37;;;;;;;0.10;0.10;;;6.30;95.40;;;;;;4980556;28;20568;-85
2024/01/17 08:34:03;;;;;;;0.10;0.10;;;6.20;95.40;;;;;;4999081;28;20058;-85
2024/01/17 08:36:30;;;;;;;0.10;0.10;;;6.20;95.50;;;;;;4999103;28;20061;-85
2024/01/17 08:38:57;;;;;;;0.10;0.10;;;6.20;95.50;;;;;;4994518;28;20035;-85
2024/01/17 08:41:23;;;;;;;0.10;0.10;;;6.20;95.40;;;;;;4994156;28;20026;-84
2024/01/17 08:43:48;;;;;;;0.10;0.10;;;6.20;95.40;;;;;;4991577;28;20137;-84
2024/01/17 08:46:14;;;;;;;0.10;0.10;;;6.10;95.40;;;;;;4980349;28;20030;-85
2024/01/17 08:48:41;;;;;;;0.10;0.10;;;6.10;95.30;;;;;;4980669;28;20038;-84
2024/01/17 08:51:11;;;;;;;0.10;0.10;;;6.00;95.40;;;;;;4980510;28;20397;-84
2024/01/17 08:53:37;;;;;;;0.10;0.10;;;6.00;95.30;;;;;;4994569;28;20043;-84
2024/01/17 08:56:05;;;;;;;0.10;0.10;;;5.90;95.10;;;;;;4980360;28;20509;-84
2024/01/17 08:58:34;;;;;;;0.20;0.20;;;5.90;95.30;;;;;;4979148;28;20077;-85
2024/01/17 09:01:01;;;;;;;0.10;0.10;;;5.90;95.40;;;;;;4988550;28;20050;-85
2024/01/17 09:03:29;;;;;;;0.10;0.10;;;5.90;95.40;;;;;;4987661;28;20065;-85
2024/01/17 09:05:55;;;;;;;0.10;0.10;;;5.80;95.10;;;;;;4993963;28;20034;-84
2024/01/17 09:08:20;;;;;;;0.10;0.10;;;5.80;95.30;;;;;;4988562;28;20800;-84
2024/01/17 09:10:46;;;;;;;0.10;0.10;;;5.70;95.30;;;;;;4991394;28;20054;-84
2024/01/17 09:13:13;;;;;;;0.10;0.10;;;5.70;95.10;;;;;;4979801;28;20023;-84
2024/01/17 09:15:39;;;;;;;0.10;0.10;;;5.80;95.40;;;;;;4986523;28;20054;-84
2024/01/17 09:18:05;;;;;;;0.10;0.10;;;5.70;95.20;;;;;;4980007;28;20026;-84
2024/01/17 09:20:31;;;;;;;0.10;0.10;;;5.70;95.20;;;;;;4978771;28;20058;-84
2024/01/17 09:22:57;;;;;;;0.10;0.10;;;5.70;95.20;;;;;;4979866;28;20530;-84
2024/01/17 09:25:23;;;;;;;0.10;0.10;;;5.70;95.30;;;;;;4979629;28;20085;-85
2024/01/17 09:27:49;;;;;;;0.10;0.10;;;5.70;95.50;;;;;;4979718;28;20034;-84
2024/01/17 09:30:14;;;;;;;0.10;0.10;;;5.80;95.50;;;;;;4979670;28;20033;-84
2024/01/17 09:32:41;;;;;;;0.10;0.10;;;5.80;95.40;;;;;;4981588;28;20047;-84
2024/01/17 09:35:08;;;;;;;0.10;0.10;;;5.80;95.40;;;;;;4999173;28;20018;-85
2024/01/17 09:37:36;;;;;;;0.10;0.10;;;5.70;95.20;;;;;;4999144;28;20049;-84
2024/01/17 09:40:05;;;;;;;0.10;0.10;;;5.80;95.40;;;;;;4997083;28;20390;-84
2024/01/17 09:42:33;;;;;;;0.10;0.10;;;5.80;95.40;;;;;;4997722;28;20498;-84
2024/01/17 09:45:00;;;;;;;0.10;0.10;;;5.90;95.50;;;;;;4998778;28;20026;-84
2024/01/17 09:47:26;;;;;;;0.10;0.10;;;5.90;95.60;;;;;;4990262;28;20534;-84
2024/01/17 09:49:52;;;;;;;0.10;0.10;;;6.00;95.50;;;;;;4979371;28;20031;-84
2024/01/17 09:52:22;;;;;;;0.10;0.10;;;5.90;95.20;;;;;;4979271;28;20062;-85
2024/01/17 09:54:51;;;;;;;0.10;0.10;;;6.00;95.50;;;;;;4979311;28;20045;-85
2024/01/17 09:57:24;;;;;;;0.10;0.10;;;6.10;95.40;;;;;;4979066;28;20031;-84
2024/01/17 09:59:56;;;;;;;0.10;0.10;;;6.10;95.40;;;;;;4982577;28;20125;-84
2024/01/17 10:02:23;;;;;;;0.10;0.10;;;6.00;95.20;;;;;;4998721;28;20080;-85
2024/01/17 10:04:49;;;;;;;0.10;0.10;;;6.00;95.40;;;;;;4978929;28;20031;-84
2024/01/17 10:07:17;;;;;;;0.10;0.10;;;6.00;95.40;;;;;;4980373;28;20041;-85
2024/01/17 10:09:44;;;;;;;0.10;0.10;;;6.00;95.50;;;;;;4995668;28;20508;-84
2024/01/17 10:12:10;;;;;;;0.17;0.17;;;6.10;95.50;;;;;;4994240;28;20115;-85
2024/01/17 10:14:36;;;;;;;0.10;0.10;;;6.10;95.40;;;;;;4979004;28;20022;-84
2024/01/17 10:17:02;;;;;;;0.10;0.10;;;6.10;95.30;;;;;;4978853;28;20030;-85
2024/01/17 10:19:28;;;;;;;0.10;0.10;;;6.20;95.50;;;;;;4978647;28;20150;-84
2024/01/17 10:21:53;;;;;;;0.10;0.10;;;6.20;95.50;;;;;;4978807;28;20062;-85
2024/01/17 10:24:19;;;;;;;0.10;0.10;;;6.20;95.30;;;;;;4978869;28;20031;-84
2024/01/17 10:26:45;;;;;;;0.10;0.10;;;6.30;95.40;;;;;;4985273;28;20038;-84
2024/01/17 10:29:11;;;;;;;0.10;0.10;;;6.40;95.40;;;;;;4993602;28;20117;-83
2024/01/17 10:31:41;;;;;;;0.10;0.10;;;6.40;95.20;;;;;;4996273;28;20453;-84
2024/01/17 10:34:10;;;;;;;0.10;0.10;;;6.50;95.50;;;;;;4992288;28;20026;-85
2024/01/17 10:36:44;;;;;;;0.10;0.10;;;6.50;95.30;;;;;;4998044;28;20034;-84
2024/01/17 10:39:11;;;;;;;0.10;0.10;;;6.60;95.40;;;;;;4988132;28;20049;-84
2024/01/17 10:41:59;;;;;;;0.10;0.10;;;6.60;95.30;;;;;;4995075;28;20379;-84
2024/01/17 10:44:25;;;;;;;0.10;0.10;;;6.70;95.40;;;;;;4992377;28;20030;-84
2024/01/17 10:46:51;;;;;;;0.10;0.10;;;6.60;95.10;;;;;;4978098;28;20479;-84
2024/01/17 10:49:18;;;;;;;0.10;0.10;;;6.70;95.40;;;;;;4992904;28;20074;-84
2024/01/17 10:52:11;;;;;;;0.15;0.15;;;6.70;95.30;;;;;;4981869;28;20561;-84
2024/01/17 10:54:50;;;;;;;0.10;0.10;;;6.70;95.30;;;;;;4997593;28;20018;-84
2024/01/17 10:57:18;;;;;;;0.10;0.10;;;6.70;95.40;;;;;;4996037;28;20030;-84
2024/01/17 10:59:47;;;;;;;0.10;0.10;;;6.70;95.40;;;;;;4997227;28;20512;-84
2024/01/17 11:02:22;;;;;;;0.20;0.20;;;6.70;95.40;;;;;;4985308;28;20453;-84
2024/01/17 11:04:57;;;;;;;0.10;0.10;;;6.70;95.40;;;;;;4997046;28;20034;-84
2024/01/17 11:07:24;;;;;;;0.10;0.10;;;6.80;95.40;;;;;;4997533;28;20026;-85
2024/01/17 11:09:53;;;;;;;0.10;0.10;;;6.80;95.40;;;;;;4981135;28;20059;-85
2024/01/17 11:12:20;;;;;;;0.10;0.10;;;6.90;95.40;;;;;;4992620;28;20569;-84
2024/01/17 11:14:47;;;;;;;0.10;0.10;;;6.90;95.20;;;;;;4995590;28;20082;-84
2024/01/17 11:17:15;;;;;;;0.10;0.10;;;7.00;95.30;;;;;;4994939;28;20030;-84
2024/01/17 11:19:44;;;;;;;0.10;0.10;;;6.90;95.30;;;;;;4995393;28;20026;-84
2024/01/17 11:22:12;;;;;;;0.10;0.10;;;7.00;95.40;;;;;;4996010;28;20031;-84
2024/01/17 11:24:58;;;;;;;0.10;0.10;;;6.90;95.10;;;;;;4997124;28;20101;-85
2024/01/17 11:27:54;;;;;;;0.13;0.13;;;6.90;95.30;;;;;;4996075;28;20053;-85
2024/01/17 11:30:52;;;;;;;0.10;0.10;;;6.90;95.00;;;;;;4957329;28;20046;-85
2024/01/17 11:33:19;;;;;;;0.10;0.10;;;6.80;95.10;;;;;;4984756;28;20502;-85
2024/01/17 11:35:53;;;;;;;0.10;0.10;;;6.80;95.30;;;;;;4995837;28;20106;-84
2024/01/17 11:38:24;;;;;;;0.10;0.10;;;6.80;95.30;;;;;;4987231;28;20030;-84
2024/01/17 11:41:23;;;;;;;0.10;0.10;;;6.70;95.00;;;;;;4986749;28;20023;-84
2024/01/17 11:43:50;;;;;;;0.10;0.10;;;6.80;95.30;;;;;;4971671;28;20449;-84
2024/01/17 11:46:16;;;;;;;0.10;0.10;;;6.80;95.10;;;;;;4996455;28;20022;-84
2024/01/17 11:48:42;;;;;;;0.13;0.13;;;6.80;95.20;;;;;;4992342;28;20037;-85
2024/01/17 11:51:10;;;;;;;0.10;0.10;;;6.90;95.40;;;;;;4989645;28;20041;-82
2024/01/17 11:53:36;;;;;;;0.10;0.10;;;6.90;95.30;;;;;;4994928;28;20502;-78
2024/01/17 11:56:04;;;;;;;0.10;0.10;;;6.90;95.00;;;;;;4993599;28;20445;-83
2024/01/17 11:58:44;;;;;;;0.10;0.10;;;7.00;95.20;;;;;;4994119;28;20014;-90
2024/01/17 12:01:18;;;;;;;0.10;0.10;;;6.90;94.80;;;;;;4994087;28;20076;-85
2024/01/17 12:03:44;;;;;;;0.10;0.10;;;6.90;95.10;;;;;;4987300;28;20056;-86
2024/01/17 12:06:13;;;;;;;0.10;0.10;;;6.80;94.80;;;;;;4996223;28;20034;-90
2024/01/17 12:08:44;;;;;;;0.10;0.10;;;7.00;95.20;;;;;;4993383;28;20031;-81
2024/01/17 12:11:10;;;;;;;0.10;0.10;;;7.00;95.20;;;;;;4980316;28;20071;-89
2024/01/17 12:13:37;;;;;;;0.10;0.10;;;7.10;95.10;;;;;;4976567;28;20029;-88
2024/01/17 12:16:04;;;;;;;0.10;0.10;;;7.20;95.30;;;;;;4995709;28;20037;-85
2024/01/17 12:18:31;;;;;;;0.10;0.10;;;7.20;95.20;;;;;;4996002;28;20066;-85
2024/01/17 12:21:04;;;;;;;0.10;0.10;;;7.20;95.10;;;;;;4996088;28;20035;-85
2024/01/17 12:23:31;;;;;;;;;;;7.20;95.10;;;;;;4994998;28;20027;-86
2024/01/17 12:25:58;;;;;;;0.10;0.10;;;7.20;95.10;;;;;;4996118;28;19917;-85
2024/01/17 12:28:26;;;;;;;0.00;0.00;;;7.30;95.10;;;;;;4992456;28;20085;-86
2024/01/17 12:31:02;;;;;;;0.10;0.10;;;7.20;95.00;;;;;;4977071;28;20053;-84
2024/01/17 12:33:31;;;;;;;0.10;0.10;;;7.30;95.20;;;;;;4986149;28;20049;-86
2024/01/17 12:35:57;;;;;;;0.10;0.10;;;7.30;95.20;;;;;;4992694;28;20038;-88
2024/01/17 12:38:34;;;;;;;0.10;0.10;;;7.30;95.10;;;;;;4980737;28;20050;-85
2024/01/17 12:41:01;;;;;;;0.10;0.10;;;7.40;95.10;;;;;;4989848;28;20027;-80
2024/01/17 12:43:33;;;;;;;0.10;0.10;;;7.30;95.10;;;;;;4985745;28;20045;-80
2024/01/17 12:46:00;;;;;;;0.10;0.10;;;7.40;95.20;;;;;;4979783;28;20340;-80
2024/01/17 12:48:26;;;;;;;0.10;0.10;;;7.50;95.20;;;;;;4985419;28;20039;-78
2024/01/17 12:50:57;;;;;;;0.10;0.10;;;7.40;95.10;;;;;;4991474;28;20018;-82
2024/01/17 12:53:27;;;;;;;0.10;0.10;;;7.50;95.20;;;;;;4993550;28;20041;-81
2024/01/17 12:55:58;;;;;;;0.10;0.10;;;7.50;94.90;;;;;;4999182;28;20041;-79
2024/01/17 12:58:25;;;;;;;0.10;0.10;;;7.50;95.10;;;;;;4990047;28;20506;-77
2024/01/17 13:00:51;;;;;;;0.10;0.10;;;7.60;95.00;;;;;;4994955;28;20037;-80
2024/01/17 13:03:18;;;;;;;0.10;0.10;;;7.70;95.20;;;;;;4991813;28;20391;-80
2024/01/17 13:05:44;;;;;;;0.10;0.10;;;7.70;94.90;;;;;;4997084;28;20378;-80
2024/01/17 13:08:15;;;;;;;0.10;0.10;;;7.70;95.10;;;;;;4995068;28;20117;-80
2024/01/17 13:10:42;;;;;;;0.10;0.10;;;7.60;94.80;;;;;;4992577;28;20056;-80
2024/01/17 13:13:09;;;;;;;0.10;0.10;;;7.60;95.00;;;;;;4995363;28;20030;-80
2024/01/17 13:15:39;;;;;;;0.10;0.10;;;7.50;95.10;;;;;;4996596;28;20022;-80
2024/01/17 13:18:09;;;;;;;0.10;0.10;;;7.50;95.10;;;;;;4998340;28;20026;-81
2024/01/17 13:20:39;;;;;;;0.10;0.10;;;7.60;95.20;;;;;;4998780;28;20085;-81
2024/01/17 13:23:06;;;;;;;0.10;0.10;;;7.60;95.10;;;;;;4997522;28;20041;-80
2024/01/17 13:25:32;;;;;;;0.10;0.10;;;7.60;95.00;;;;;;4999019;28;20054;-80
2024/01/17 13:28:03;;;;;;;0.10;0.10;;;7.60;94.80;;;;;;4995159;28;20038;-80
2024/01/17 13:30:37;;;;;;;0.10;0.10;;;7.60;94.90;;;;;;4993323;28;20117;-80
2024/01/17 13:33:10;;;;;;;0.10;0.10;;;7.70;94.90;;;;;;4994679;28;20097;-80
2024/01/17 13:35:39;;;;;;;0.10;0.10;;;7.80;95.00;;;;;;4997433;28;20050;-80
2024/01/17 13:38:05;;;;;;;0.10;0.10;;;7.80;94.90;;;;;;4997732;28;20061;-80
2024/01/17 13:40:31;;;;;;;0.10;0.10;;;7.80;94.80;;;;;;4997833;28;20444;-81
2024/01/17 13:42:57;;;;;;;0.10;0.10;;;7.80;94.80;;;;;;4996773;28;20378;-81
2024/01/17 13:45:23;;;;;;;0.10;0.10;;;7.80;94.90;;;;;;4997621;28;20034;-81
2024/01/17 13:47:50;;;;;;;0.10;0.10;;;7.80;94.70;;;;;;4993138;28;20027;-81
2024/01/17 13:50:25;;;;;;;0.10;0.10;;;7.80;94.90;;;;;;4994905;28;20080;-81
2024/01/17 13:52:52;;;;;;;0.05;0.05;;;7.80;94.90;;;;;;4998026;28;20857;-81
2024/01/17 13:55:24;;;;;;;0.10;0.10;;;7.90;94.90;;;;;;4998579;28;20025;-81
2024/01/17 13:57:51;;;;;;;0.10;0.10;;;7.90;94.80;;;;;;4997234;28;20029;-81
2024/01/17 14:00:17;;;;;;;0.10;0.10;;;7.90;94.80;;;;;;4996212;28;20030;-81
2024/01/17 14:02:43;;;;;;;0.10;0.10;;;7.80;94.80;;;;;;4997412;28;20102;-81
2024/01/17 14:05:13;;;;;;;0.10;0.10;;;7.80;94.60;;;;;;4995093;28;20034;-81
2024/01/17 14:07:39;;;;;;;0.10;0.10;;;7.90;94.50;;;;;;4996651;28;20093;-81
2024/01/17 14:10:10;;;;;;;0.10;0.10;;;7.90;94.60;;;;;;4998401;28;20813;-79
2024/01/17 14:12:41;;;;;;;0.10;0.10;;;7.90;94.60;;;;;;4997102;28;20022;-80
2024/01/17 14:15:08;;;;;;;0.10;0.10;;;7.90;94.60;;;;;;4994614;28;20022;-80
2024/01/17 14:17:34;;;;;;;0.10;0.10;;;8.00;94.60;;;;;;4996325;28;20126;-80
2024/01/17 14:20:04;;;;;;;0.10;0.10;;;8.10;94.60;;;;;;4996952;28;20029;-79
2024/01/17 14:22:30;;;;;;;0.10;0.10;;;8.10;94.50;;;;;;4992860;28;20027;-79
2024/01/17 14:24:56;;;;;;;0.10;0.10;;;8.10;94.30;;;;;;4996867;28;20106;-81
2024/01/17 14:27:21;;;;;;;0.10;0.10;;;8.10;94.40;;;;;;4991043;28;20486;-80
2024/01/17 14:29:50;;;;;;;0.10;0.10;;;8.10;94.40;;;;;;4994861;28;20033;-79
2024/01/17 14:32:16;;;;;;;0.10;0.10;;;8.00;94.30;;;;;;4993696;28;20557;-80
2024/01/17 14:34:42;;;;;;;0.10;0.10;;;8.10;94.40;;;;;;4996320;28;20130;-79
2024/01/17 14:37:09;;;;;;;0.10;0.10;;;8.00;94.50;;;;;;4996573;28;20023;-79
2024/01/17 14:39:36;;;;;;;0.10;0.10;;;8.00;94.30;;;;;;4994532;28;20022;-79
2024/01/17 14:42:03;;;;;;;0.10;0.10;;;8.00;94.40;;;;;;4995966;28;20471;-79
2024/01/17 14:44:29;;;;;;;0.10;0.10;;;8.00;94.30;;;;;;4997311;28;20085;-79
2024/01/17 14:46:55;;;;;;;0.10;0.10;;;8.00;94.20;;;;;;4994294;28;20030;-79
2024/01/17 14:49:20;;;;;;;0.10;0.10;;;8.00;94.30;;;;;;4993278;28;20088;-79
2024/01/17 14:51:46;;;;;;;0.10;0.10;;;8.00;94.30;;;;;;4996295;28;20030;-79
2024/01/17 14:54:12;;;;;;;0.10;0.10;;;8.00;94.10;;;;;;4997192;28;20022;-79
2024/01/17 14:56:37;;;;;;;0.10;0.10;;;8.00;94.20;;;;;;4995500;28;20074;-79
2024/01/17 14:59:03;;;;;;;0.10;0.10;;;8.00;94.30;;;;;;4997403;28;20073;-81
2024/01/17 15:01:29;;;;;;;0.10;0.10;;;8.00;94.30;;;;;;4995780;28;20482;-79
2024/01/17 15:03:55;;;;;;;0.10;0.10;;;8.00;94.20;;;;;;4996041;28;20026;-79
2024/01/17 15:06:25;;;;;;;0.10;0.10;;;8.00;93.80;;;;;;4997639;28;20077;-80
2024/01/17 15:08:51;;;;;;;0.10;0.10;;;8.00;94.10;;;;;;4994255;28;20502;-80
2024/01/17 15:11:17;;;;;;;0.10;0.10;;;8.10;94.00;;;;;;4995022;28;20030;-80
2024/01/17 15:13:42;;;;;;;0.10;0.10;;;8.20;94.10;;;;;;4995471;28;20057;-80
2024/01/17 15:16:19;;;;;;;0.15;0.15;;;8.10;93.90;;;;;;4996039;28;20053;-80
2024/01/17 15:18:44;;;;;;;0.10;0.10;;;8.20;94.00;;;;;;4993967;28;20068;-80
2024/01/17 15:21:13;;;;;;;0.10;0.10;;;8.10;93.80;;;;;;4995520;28;20037;-80
2024/01/17 15:23:39;;;;;;;0.10;0.10;;;8.20;94.00;;;;;;4994311;28;20097;-80
2024/01/17 15:26:04;;;;;;;0.10;0.10;;;8.20;93.70;;;;;;4996461;28;20497;-80
2024/01/17 15:28:30;;;;;;;0.10;0.10;;;8.10;93.50;;;;;;4993641;28;20505;-80
2024/01/17 15:30:57;;;;;;;0.10;0.10;;;8.10;93.70;;;;;;4996402;28;20046;-80
2024/01/17 15:33:23;;;;;;;0.10;0.10;;;8.10;93.50;;;;;;4993540;28;20025;-80
2024/01/17 15:35:53;;;;;;;0.10;0.10;;;8.00;93.60;;;;;;4996227;28;20022;-80
2024/01/17 15:38:19;;;;;;;0.10;0.10;;;8.10;93.90;;;;;;4995684;28;20027;-80
2024/01/17 15:40:55;;;;;;;0.10;0.10;;;8.00;93.80;;;;;;4994885;28;20094;-80
2024/01/17 15:43:32;;;;;;;0.10;0.10;;;8.10;93.70;;;;;;4995340;28;20485;-80
2024/01/17 15:45:59;;;;;;;0.10;0.10;;;8.10;93.80;;;;;;4993279;28;20038;-80
2024/01/17 15:48:25;;;;;;;0.10;0.10;;;8.10;93.80;;;;;;4994596;28;20470;-80
2024/01/17 15:50:51;;;;;;;0.10;0.10;;;8.00;93.70;;;;;;4996003;28;20026;-80
2024/01/17 15:53:17;;;;;;;0.10;0.10;;;8.10;93.70;;;;;;4996106;28;20018;-80
2024/01/17 15:55:43;;;;;;;0.10;0.10;;;8.10;93.70;;;;;;4994447;28;20437;-80
2024/01/17 15:58:12;;;;;;;0.10;0.10;;;8.10;93.60;;;;;;4995633;28;20023;-80
2024/01/17 16:00:42;;;;;;;0.10;0.10;;;8.00;93.70;;;;;;4994377;28;20032;-80
2024/01/17 16:03:13;;;;;;;0.10;0.10;;;8.10;93.70;;;;;;4992805;28;20022;-79
2024/01/17 16:05:39;;;;;;;0.10;0.10;;;8.00;93.40;;;;;;4985111;28;20023;-82
2024/01/17 16:08:06;;;;;;;0.10;0.10;;;8.00;93.00;;;;;;4979222;28;20026;-80
2024/01/17 16:10:32;;;;;;;0.10;0.10;;;7.90;93.20;;;;;;5007388;28;20034;-81
2024/01/17 16:12:58;;;;;;;0.10;0.10;;;7.90;93.50;;;;;;4992381;28;20389;-80
2024/01/17 16:15:24;;;;;;;0.10;0.10;;;7.90;93.50;;;;;;4993679;28;20043;-80
2024/01/17 16:17:49;;;;;;;0.10;0.10;;;7.90;93.60;;;;;;4993485;28;20038;-82
2024/01/17 16:20:18;;;;;;;0.10;0.10;;;7.90;93.20;;;;;;4994152;28;20125;-82
2024/01/17 16:22:44;;;;;;;0.10;0.10;;;7.90;93.30;;;;;;4993924;28;20046;-82
2024/01/17 16:25:11;;;;;;;0.10;0.10;;;7.90;93.50;;;;;;4995664;28;20034;-83
2024/01/17 16:27:37;;;;;;;0.10;0.10;;;7.90;93.30;;;;;;4999213;28;20031;-84
2024/01/17 16:30:04;;;;;;;0.10;0.10;;;7.90;92.80;;;;;;4997298;28;20026;-83
2024/01/17 16:32:30;;;;;;;0.10;0.10;;;7.80;93.20;;;;;;4994529;28;20042;-79
2024/01/17 16:34:55;;;;;;;0.10;0.10;;;7.80;93.20;;;;;;4994065;28;20197;-80
2024/01/17 16:37:21;;;;;;;0.10;0.10;;;7.80;93.00;;;;;;4997402;28;20509;-79
2024/01/17 16:39:48;;;;;;;0.10;0.10;;;7.70;93.10;;;;;;4996730;28;20510;-80
2024/01/17 16:42:14;;;;;;;0.10;0.10;;;7.70;93.30;;;;;;4997016;28;20573;-80
2024/01/17 16:44:40;;;;;;;0.10;0.10;;;7.70;93.00;;;;;;4996752;28;20057;-80
2024/01/17 16:47:05;;;;;;;0.10;0.10;;;7.70;93.10;;;;;;4996273;28;20034;-82
2024/01/17 16:49:31;;;;;;;0.10;0.10;;;7.70;93.10;;;;;;4998852;28;20025;-78
2024/01/17 16:51:57;;;;;;;0.10;0.10;;;7.60;92.80;;;;;;4996541;28;20030;-78
2024/01/17 16:54:22;;;;;;;0.10;0.10;;;7.60;92.90;;;;;;4998513;28;20030;-78
2024/01/17 16:56:48;;;;;;;0.10;0.10;;;7.60;93.10;;;;;;4994702;28;20414;-78
2024/01/17 16:59:18;;;;;;;0.10;0.10;;;7.50;92.80;;;;;;4995078;28;20470;-78
2024/01/17 17:01:44;;;;;;;0.10;0.10;;;7.50;93.00;;;;;;4994562;28;20121;-78
2024/01/17 17:04:10;;;;;;;0.10;0.10;;;7.50;92.90;;;;;;4997225;28;20030;-78
2024/01/17 17:06:35;;;;;;;0.10;0.10;;;7.60;93.00;;;;;;4996491;28;20478;-78
2024/01/17 17:09:01;;;;;;;0.10;0.10;;;7.40;92.20;;;;;;4997645;28;20018;-81
2024/01/17 17:11:26;;;;;;;0.10;0.10;;;7.50;92.80;;;;;;4994438;28;20023;-83
2024/01/17 17:13:52;;;;;;;0.00;0.00;;;7.40;92.70;;;;;;4996684;28;20402;-84
2024/01/17 17:16:22;;;;;;;0.10;0.10;;;7.40;92.90;;;;;;4997267;28;20682;-84
2024/01/17 17:18:47;;;;;;;0.10;0.10;;;7.30;92.70;;;;;;4996846;28;20081;-85
2024/01/17 17:21:13;;;;;;;0.10;0.10;;;7.40;92.90;;;;;;4996098;28;20026;-84
2024/01/17 17:23:39;;;;;;;0.10;0.10;;;7.40;92.50;;;;;;4994626;28;20078;-85
2024/01/17 17:26:05;;;;;;;0.10;0.10;;;7.30;92.60;;;;;;4988283;28;20654;-85
2024/01/17 17:28:31;;;;;;;0.10;0.10;;;7.30;92.80;;;;;;5011284;28;20034;-84
2024/01/17 17:30:58;;;;;;;0.10;0.10;;;7.20;92.60;;;;;;4994480;28;20637;-85
2024/01/17 17:33:24;;;;;;;0.10;0.10;;;7.30;92.90;;;;;;4994865;28;20632;-83
2024/01/17 17:35:50;;;;;;;0.10;0.10;;;7.20;92.60;;;;;;4994793;28;20027;-84
2024/01/17 17:38:16;;;;;;;0.10;0.10;;;7.20;92.80;;;;;;4995215;28;20038;-84
2024/01/17 17:40:42;;;;;;;0.10;0.10;;;7.20;92.30;;;;;;4994689;28;20612;-84
2024/01/17 17:43:08;;;;;;;0.10;0.10;;;7.20;92.80;;;;;;4997388;28;20058;-84
2024/01/17 17:45:34;;;;;;;0.10;0.10;;;7.20;92.80;;;;;;4994663;28;20081;-83
2024/01/17 17:48:00;;;;;;;0.10;0.10;;;7.20;92.80;;;;;;4998334;28;20058;-84
2024/01/17 17:50:27;;;;;;;0.10;0.10;;;7.20;92.40;;;;;;4994959;28;20018;-82
2024/01/17 17:52:53;;;;;;;0.10;0.10;;;7.20;92.60;;;;;;4996394;28;20019;-81
2024/01/17 17:55:19;;;;;;;0.10;0.10;;;7.20;92.70;;;;;;4997277;28;20501;-83
2024/01/17 17:57:45;;;;;;;0.10;0.10;;;7.10;92.60;;;;;;4997372;28;20061;-82
2024/01/17 18:00:12;;;;;;;0.10;0.10;;;7.00;92.50;;;;;;4996658;28;20033;-86
2024/01/17 18:02:38;;;;;;;0.10;0.10;;;7.10;92.70;;;;;;5012193;28;20030;-84
2024/01/17 18:05:04;;;;;;;0.10;0.10;;;7.10;92.50;;;;;;4988450;28;20034;-86
2024/01/17 18:07:30;;;;;;;0.10;0.10;;;7.10;92.70;;;;;;4995313;28;20113;-83
2024/01/17 18:09:56;;;;;;;0.10;0.10;;;7.20;92.80;;;;;;4998520;28;20552;-89
2024/01/17 18:12:22;;;;;;;0.10;0.10;;;7.10;92.40;;;;;;4989436;28;20030;-87
2024/01/17 18:14:48;;;;;;;0.10;0.10;;;7.10;92.40;;;;;;4995798;28;20022;-91
2024/01/17 18:17:14;;;;;;;0.10;0.10;;;7.10;92.30;;;;;;4983603;28;20536;-86
2024/01/17 18:19:40;;;;;;;0.10;0.10;;;7.00;92.10;;;;;;4966227;28;20028;-82
2024/01/17 18:22:06;;;;;;;0.10;0.10;;;6.90;91.90;;;;;;4994502;28;20030;-83
2024/01/17 18:24:31;;;;;;;0.10;0.10;;;6.90;92.30;;;;;;4995419;28;20019;-87
2024/01/17 18:26:57;;;;;;;0.10;0.10;;;7.00;92.50;;;;;;4995474;28;20042;-86
2024/01/17 18:29:23;;;;;;;0.10;0.10;;;7.00;92.30;;;;;;4995729;28;20034;-83